Main page
METAR-TAF:

METAR-TAF

Airports :

Houari Boumediene Airport

Algiers, Algeria

latitude: 36-43N, longitude: 003-15E, elevation: 25 m

Current weather observation

The report was made 31 minutes ago, at 22:30 UTC
Calm wind
Temperature 7°C
Humidity 93%
Pressure 1022 hPa
Visibility 10 km or more
Few clouds at a height of 1600 ft

METAR: DAAG 242230Z 00000KT 9999 FEW016 07/06 Q1022

Time: 00:01 (23:01 UTC)

Forecast

The report was made 6 hours and 1 minutes ago, at 17:00 UTC
Forecast valid from 24 at 18 UTC to 25 at 18 UTC
Wind 2 kt from variable directions
Visibility 10 km or more
no clouds below 1500 m and no cumulonimbus
Becoming
from 25 at 08 UTC to 25 at 11 UTC
Wind 10 kt from the Northeast

TAF: DAAG 241700Z 2418/2518 VRB02KT CAVOK BECMG 2508/2511 04010KT

Weather observations and forecasts of more than 4000 airports (METAR and TAF reports).

The available stations are represented by yellow and red dots on the map.

Hover mouse over dot to see the name of the station.

Then click to see weather observations and forecasts.

To change the map : click on the green buttons with a black cross to zoom in, on the green button with a dash to zoom out, or on the green arrows for adjacent maps.


METAR-TAF: